Time;durP1;ratioP1;P1;durP2;ratioP2;P2;SDS_P1;SDS_P2;PMS_P1;PMS_P2;Temp;Humidity;BMP_temperature;BMP_pressure;BME280_temperature;BME280_humidity;BME280_pressure;Samples;Min_cycle;Max_cycle;Signal;HPM_P1;HPM_P2
2021/12/17 00:00:45;;;;;;;29.40;14.07;;;7.80;99.90;;;;;;4817506;29;20085;-88
2021/12/17 00:03:21;;;;;;;26.67;15.60;;;7.70;99.90;;;;;;4810008;29;21341;-88
2021/12/17 00:06:11;;;;;;;28.75;15.38;;;7.70;99.90;;;;;;4807550;29;20065;-88
2021/12/17 00:08:43;;;;;;;24.45;13.88;;;7.80;99.90;;;;;;4818883;29;20073;-88
2021/12/17 00:11:10;;;;;;;32.53;16.27;;;7.70;99.90;;;;;;4827177;29;20050;-88
2021/12/17 00:13:38;;;;;;;24.95;15.05;;;7.70;99.90;;;;;;4815982;29;20104;-88
2021/12/17 00:16:14;;;;;;;29.77;15.00;;;7.70;99.90;;;;;;4816509;29;20073;-88
2021/12/17 00:49:00;;;;;;;30.92;18.05;;;7.70;99.90;;;;;;4833624;29;20110;-88
2021/12/17 00:54:00;;;;;;;34.03;16.65;;;8.60;99.90;;;;;;4827005;29;20489;-88
2021/12/17 00:56:26;;;;;;;32.45;16.38;;;7.70;99.90;;;;;;4828562;29;20042;-88
2021/12/17 00:58:53;;;;;;;31.80;15.80;;;7.80;99.90;;;;;;4812561;29;20152;-88
2021/12/17 01:01:19;;;;;;;27.17;16.30;;;7.70;99.90;;;;;;4818588;29;20140;-88
2021/12/17 01:03:45;;;;;;;37.05;16.83;;;7.70;99.90;;;;;;4815317;29;20054;-88
2021/12/17 01:06:14;;;;;;;29.58;15.05;;;7.80;99.90;;;;;;4811507;29;20130;-88
2021/12/17 01:08:41;;;;;;;32.90;15.10;;;7.70;99.90;;;;;;4840511;29;20042;-88
2021/12/17 01:11:07;;;;;;;28.60;15.23;;;8.80;99.90;;;;;;4812249;29;20133;-88
2021/12/17 01:13:36;;;;;;;27.73;16.10;;;7.70;99.90;;;;;;4827063;29;20608;-88
2021/12/17 01:16:04;;;;;;;28.83;13.82;;;7.70;99.90;;;;;;4828847;29;20045;-88
2021/12/17 01:18:56;;;;;;;26.90;15.93;;;7.80;99.90;;;;;;4812176;29;20066;-88
2021/12/17 01:42:26;;;;;;;20.65;10.45;;;7.80;99.90;;;;;;4831913;29;20082;-88
2021/12/17 01:44:52;;;;;;;21.60;11.07;;;7.80;99.90;;;;;;4818848;29;20086;-88
2021/12/17 01:47:18;;;;;;;20.47;10.17;;;7.70;99.90;;;;;;4837692;29;20542;-88
2021/12/17 02:00:43;;;;;;;18.50;9.35;;;7.80;99.90;;;;;;4831095;29;20054;-89
2021/12/17 02:03:12;;;;;;;18.02;10.35;;;7.80;99.90;;;;;;4828201;29;20058;-88
2021/12/17 02:05:38;;;;;;;16.83;9.30;;;7.80;99.90;;;;;;4835412;29;20054;-88
2021/12/17 02:08:08;;;;;;;15.40;9.05;;;8.50;99.90;;;;;;4813685;29;20505;-88
2021/12/17 02:11:28;;;;;;;14.13;9.52;;;8.00;99.90;;;;;;4815153;29;20109;-88
2021/12/17 02:22:18;;;;;;;13.60;7.35;;;7.50;99.90;;;;;;4821907;29;20051;-88
2021/12/17 02:32:51;;;;;;;14.48;6.95;;;7.80;99.90;;;;;;4815950;29;20066;-88
2021/12/17 02:35:31;;;;;;;15.80;7.63;;;7.70;99.90;;;;;;4820799;29;20565;-88
2021/12/17 02:37:58;;;;;;;11.48;7.68;;;7.70;99.90;;;;;;4810178;29;20049;-88
2021/12/17 02:45:51;;;;;;;13.32;8.00;;;7.80;99.90;;;;;;4830506;29;20506;-88
2021/12/17 02:48:21;;;;;;;19.02;8.95;;;7.70;99.90;;;;;;4812559;29;20093;-88
2021/12/17 02:50:52;;;;;;;14.20;8.18;;;8.10;99.90;;;;;;4838203;29;20053;-88
2021/12/17 02:53:28;;;;;;;15.00;8.18;;;7.80;99.90;;;;;;4834482;29;20125;-88
2021/12/17 02:56:00;;;;;;;12.82;7.97;;;7.80;99.90;;;;;;4815200;29;20046;-88
2021/12/17 02:58:30;;;;;;;15.40;8.70;;;7.70;99.90;;;;;;4821126;29;20045;-88
2021/12/17 03:01:00;;;;;;;12.85;8.30;;;7.80;99.90;;;;;;4826768;29;20049;-88
2021/12/17 03:03:31;;;;;;;17.90;9.50;;;7.80;99.90;;;;;;4821007;29;20052;-89
2021/12/17 03:05:57;;;;;;;15.30;9.15;;;7.50;99.90;;;;;;4825809;29;20524;-88
2021/12/17 03:08:23;;;;;;;18.40;8.55;;;7.80;99.90;;;;;;4832600;29;20049;-88
2021/12/17 03:10:52;;;;;;;17.33;8.60;;;7.80;99.90;;;;;;4810895;29;20510;-88
2021/12/17 03:13:21;;;;;;;16.50;8.20;;;7.70;99.90;;;;;;4815677;29;20065;-88
2021/12/17 03:16:10;;;;;;;18.88;8.93;;;7.80;99.90;;;;;;4819420;29;20049;-87
2021/12/17 03:23:57;;;;;;;11.20;7.07;;;7.70;99.90;;;;;;4830599;29;20536;-88
2021/12/17 03:26:27;;;;;;;12.25;7.30;;;7.70;99.90;;;;;;4823604;29;20053;-88
2021/12/17 03:28:56;;;;;;;11.43;6.90;;;7.70;99.90;;;;;;4828112;29;20045;-88
2021/12/17 03:31:24;;;;;;;14.73;7.60;;;7.70;99.90;;;;;;4817803;29;20482;-88
2021/12/17 03:34:12;;;;;;;16.40;9.02;;;7.70;99.90;;;;;;4825893;29;20073;-88
2021/12/17 03:36:37;;;;;;;14.73;7.70;;;7.70;99.90;;;;;;4828829;29;20317;-88
2021/12/17 03:39:03;;;;;;;10.63;7.57;;;8.70;99.90;;;;;;4815449;29;20056;-88
2021/12/17 03:41:45;;;;;;;14.80;7.13;;;8.50;99.90;;;;;;4816567;29;20053;-88
2021/12/17 03:44:11;;;;;;;14.95;7.28;;;7.70;99.90;;;;;;4821442;29;20086;-88
2021/12/17 03:46:37;;;;;;;14.90;6.90;;;7.70;99.90;;;;;;4834717;29;20096;-88
2021/12/17 03:49:03;;;;;;;11.07;7.27;;;7.70;99.90;;;;;;4833464;29;20406;-88
2021/12/17 03:51:29;;;;;;;15.85;7.93;;;7.70;99.90;;;;;;4821688;29;20082;-88
2021/12/17 03:54:00;;;;;;;15.52;7.53;;;7.70;99.90;;;;;;4815092;29;20073;-88
2021/12/17 03:56:26;;;;;;;16.98;7.95;;;7.70;99.90;;;;;;4813418;29;20046;-88
2021/12/17 03:58:57;;;;;;;11.50;6.40;;;7.80;99.90;;;;;;4839145;29;20046;-88
2021/12/17 04:01:23;;;;;;;13.25;6.45;;;7.70;99.90;;;;;;4836182;29;20041;-87
2021/12/17 04:03:54;;;;;;;16.98;7.07;;;7.70;99.90;;;;;;4834349;29;20053;-88
2021/12/17 04:06:25;;;;;;;9.18;6.07;;;7.70;99.90;;;;;;4823149;29;20053;-88
2021/12/17 04:08:55;;;;;;;13.38;6.68;;;7.70;99.90;;;;;;4838172;29;20124;-88
2021/12/17 04:11:20;;;;;;;13.70;6.95;;;7.60;99.90;;;;;;4805769;29;20064;-88
2021/12/17 04:13:56;;;;;;;8.87;4.90;;;7.70;99.90;;;;;;4833283;29;20045;-88
2021/12/17 04:16:26;;;;;;;11.45;5.95;;;7.70;99.90;;;;;;4836993;29;20049;-88
2021/12/17 04:18:55;;;;;;;9.77;5.75;;;7.40;99.90;;;;;;4815135;29;20132;-88
2021/12/17 04:21:21;;;;;;;9.93;6.63;;;7.30;99.90;;;;;;4814679;29;20053;-88
2021/12/17 04:23:51;;;;;;;11.32;6.32;;;8.20;99.90;;;;;;4810781;29;20168;-88
2021/12/17 04:26:18;;;;;;;8.65;5.22;;;7.60;99.90;;;;;;4830726;29;20524;-88
2021/12/17 04:28:52;;;;;;;8.23;5.57;;;7.60;99.90;;;;;;4825352;29;20057;-88
2021/12/17 04:31:25;;;;;;;8.10;5.15;;;7.60;99.90;;;;;;4831850;29;20495;-88
2021/12/17 04:33:56;;;;;;;9.88;4.55;;;7.60;99.90;;;;;;4825496;29;20049;-88
2021/12/17 04:36:29;;;;;;;12.05;3.78;;;7.60;99.90;;;;;;4833380;29;20045;-88
2021/12/17 04:38:56;;;;;;;6.40;4.18;;;7.60;99.90;;;;;;4821345;29;20053;-88
2021/12/17 04:46:38;;;;;;;5.63;3.25;;;7.40;99.90;;;;;;4821931;29;20077;-88
2021/12/17 04:57:29;;;;;;;6.07;4.32;;;7.30;99.90;;;;;;4789374;29;20107;-88
2021/12/17 04:59:59;;;;;;;10.52;4.20;;;7.30;99.90;;;;;;4776667;29;20418;-88
2021/12/17 05:02:25;;;;;;;7.80;4.25;;;7.30;99.90;;;;;;4805827;29;20077;-88
2021/12/17 05:04:53;;;;;;;6.18;4.28;;;7.20;99.90;;;;;;4807492;29;20051;-88
2021/12/17 05:07:19;;;;;;;10.23;4.57;;;6.60;99.90;;;;;;4796732;29;20104;-88
2021/12/17 05:20:58;;;;;;;6.82;4.22;;;6.60;99.90;;;;;;4814139;29;20141;-88
2021/12/17 05:23:30;;;;;;;7.43;4.40;;;7.30;99.90;;;;;;4778644;29;20124;-88
2021/12/17 05:25:58;;;;;;;6.85;4.15;;;7.40;99.90;;;;;;4796783;29;20054;-88
2021/12/17 05:28:24;;;;;;;5.78;3.70;;;7.40;99.90;;;;;;4800294;29;20055;-88
2021/12/17 05:30:54;;;;;;;4.82;4.30;;;7.40;99.90;;;;;;4776772;29;20043;-88
2021/12/17 05:33:21;;;;;;;6.60;3.28;;;7.40;99.90;;;;;;4804332;29;20055;-88
2021/12/17 05:35:48;;;;;;;7.88;4.40;;;7.40;99.90;;;;;;4806360;29;20072;-88
2021/12/17 05:38:15;;;;;;;7.18;4.47;;;7.40;99.90;;;;;;4812688;29;20050;-88
2021/12/17 05:40:44;;;;;;;5.75;3.60;;;7.30;99.90;;;;;;4778973;29;20415;-88
2021/12/17 05:43:11;;;;;;;8.23;4.88;;;7.40;99.90;;;;;;4807672;29;20051;-88
2021/12/17 05:45:49;;;;;;;8.40;4.15;;;7.40;99.90;;;;;;4812817;29;20130;-88
2021/12/17 05:48:17;;;;;;;7.50;4.50;;;7.40;99.90;;;;;;4800702;29;20059;-88
2021/12/17 05:50:45;;;;;;;5.93;4.13;;;7.50;99.90;;;;;;4839716;29;20081;-88
2021/12/17 05:53:17;;;;;;;8.50;4.70;;;7.40;99.90;;;;;;4816024;29;20188;-88
2021/12/17 05:55:43;;;;;;;4.75;3.33;;;7.30;99.90;;;;;;4833950;29;20082;-88
2021/12/17 05:58:12;;;;;;;7.65;4.05;;;7.70;99.90;;;;;;4840967;29;20068;-88
2021/12/17 06:00:40;;;;;;;9.27;4.32;;;7.40;99.90;;;;;;4815447;29;20041;-88
2021/12/17 06:03:15;;;;;;;7.57;4.55;;;7.30;99.90;;;;;;4828537;29;20049;-89
2021/12/17 06:05:41;;;;;;;7.18;4.72;;;7.30;99.90;;;;;;4841563;29;20053;-88
2021/12/17 06:08:07;;;;;;;7.37;4.97;;;7.30;99.90;;;;;;4831990;29;20049;-88
2021/12/17 06:10:36;;;;;;;9.60;4.83;;;7.40;99.90;;;;;;4833213;29;20053;-88
2021/12/17 06:13:02;;;;;;;8.30;4.90;;;7.40;99.90;;;;;;4812403;29;20110;-88
2021/12/17 06:15:33;;;;;;;7.93;5.10;;;6.90;99.90;;;;;;4831994;29;20045;-88
2021/12/17 06:17:58;;;;;;;10.88;6.28;;;7.30;99.90;;;;;;4827997;29;20092;-88
2021/12/17 06:20:37;;;;;;;11.20;6.63;;;7.30;99.90;;;;;;4813655;29;20060;-88
2021/12/17 06:23:03;;;;;;;9.73;6.40;;;7.80;99.90;;;;;;4811835;29;20094;-88
2021/12/17 06:25:31;;;;;;;14.53;6.60;;;7.60;99.90;;;;;;4830043;29;20057;-88
2021/12/17 06:27:57;;;;;;;11.43;5.53;;;7.40;99.90;;;;;;4830210;29;20080;-88
2021/12/17 06:30:23;;;;;;;8.70;6.40;;;7.30;99.90;;;;;;4823291;29;20128;-88
2021/12/17 06:32:49;;;;;;;15.77;7.25;;;7.30;99.90;;;;;;4833804;29;20051;-88
2021/12/17 06:35:16;;;;;;;13.27;7.20;;;7.30;99.90;;;;;;4830348;29;20045;-88
2021/12/17 06:37:45;;;;;;;11.85;6.95;;;7.30;99.90;;;;;;4816509;29;20111;-88
2021/12/17 06:40:11;;;;;;;9.60;6.28;;;7.30;99.90;;;;;;4833450;29;20497;-88
2021/12/17 06:42:37;;;;;;;9.80;6.05;;;7.30;99.90;;;;;;4831022;29;20156;-88
2021/12/17 06:45:14;;;;;;;12.47;7.03;;;7.30;99.90;;;;;;4830150;29;20038;-88
2021/12/17 06:47:53;;;;;;;14.55;8.07;;;7.30;99.90;;;;;;4817114;29;20053;-88
2021/12/17 06:58:51;;;;;;;;;;;8.10;99.90;;;;;;4838513;29;20106;-88
2021/12/17 07:05:51;;;;;;;15.95;7.05;;;8.30;99.90;;;;;;4818976;29;20371;-88
2021/12/17 07:08:15;;;;;;;13.70;7.20;;;7.20;99.90;;;;;;4778356;29;20050;-88
2021/12/17 07:10:15;;;;;;;12.30;6.90;;;7.20;99.90;;;;;;4828718;29;20189;-88
2021/12/17 07:32:33;;;;;;;12.75;7.55;;;7.30;99.90;;;;;;4829911;29;20573;-93
2021/12/17 07:34:15;;;;;;;11.93;6.75;;;7.30;99.90;;;;;;4817911;29;20060;-93
2021/12/17 07:38:35;;;;;;;13.45;7.28;;;7.30;99.90;;;;;;4810801;29;20061;-93
2021/12/17 07:39:34;;;;;;;12.85;7.13;;;7.30;99.90;;;;;;4825550;29;20054;-92
2021/12/17 07:42:00;;;;;;;9.85;6.78;;;7.30;99.90;;;;;;4811547;29;20050;-93
2021/12/17 07:44:29;;;;;;;10.70;8.03;;;7.30;99.90;;;;;;4810159;29;20056;-89
2021/12/17 07:47:02;;;;;;;15.77;7.65;;;7.30;99.90;;;;;;4812401;29;20512;-88
2021/12/17 07:49:28;;;;;;;11.35;6.82;;;7.30;99.90;;;;;;4819098;29;20528;-88
2021/12/17 07:51:54;;;;;;;14.53;7.57;;;7.30;99.90;;;;;;4831603;29;20050;-87
2021/12/17 07:54:23;;;;;;;11.30;7.80;;;7.50;99.90;;;;;;4812938;29;20481;-89
2021/12/17 07:56:51;;;;;;;10.85;7.10;;;7.30;99.90;;;;;;4830398;29;20101;-92
2021/12/17 07:59:35;;;;;;;;;;;;;;;;;;;;;
2021/12/17 08:02:42;;;;;;;13.73;8.07;;;7.30;99.90;;;;;;4833709;29;20052;-91
2021/12/17 08:05:10;;;;;;;9.80;6.32;;;6.70;99.90;;;;;;4835467;29;20451;-95
2021/12/17 08:07:46;;;;;;;11.70;6.95;;;7.40;99.90;;;;;;4811347;29;20042;-91
2021/12/17 08:10:34;;;;;;;12.70;7.18;;;7.50;99.90;;;;;;4820509;29;20045;-89
2021/12/17 08:13:00;;;;;;;10.70;7.40;;;6.80;99.90;;;;;;4825963;29;20404;-91
2021/12/17 08:15:51;;;;;;;;;;;;;;;;;;;;;
2021/12/17 08:32:25;;;;;;;8.75;6.05;;;7.40;99.90;;;;;;4842864;29;20521;-93
2021/12/17 08:34:56;;;;;;;12.77;7.77;;;7.40;99.90;;;;;;4831811;29;20057;-92
2021/12/17 08:37:25;;;;;;;7.53;5.97;;;7.40;99.90;;;;;;4813228;29;20057;-92
2021/12/17 08:39:53;;;;;;;13.48;7.45;;;7.40;99.90;;;;;;4814522;29;20497;-93
2021/12/17 08:42:19;;;;;;;14.15;6.75;;;7.40;99.90;;;;;;4813582;29;20413;-92
2021/12/17 08:44:50;;;;;;;9.57;6.80;;;7.50;99.90;;;;;;4811698;29;20053;-92
2021/12/17 08:47:21;;;;;;;12.93;7.90;;;7.50;99.90;;;;;;4813777;29;20108;-91
2021/12/17 08:49:53;;;;;;;10.20;6.90;;;7.50;99.90;;;;;;4822567;29;20378;-91
2021/12/17 08:52:37;;;;;;;11.88;7.38;;;7.30;99.90;;;;;;4820412;29;20133;-92
2021/12/17 08:55:15;;;;;;;11.15;7.20;;;7.50;99.90;;;;;;4795461;29;20039;-90
2021/12/17 08:58:01;;;;;;;10.35;7.50;;;7.50;99.90;;;;;;4792317;29;20053;-91
2021/12/17 09:00:27;;;;;;;17.00;7.85;;;7.30;99.90;;;;;;4821594;29;20085;-90
2021/12/17 09:03:01;;;;;;;9.20;7.32;;;7.60;99.90;;;;;;4822510;29;20092;-90
2021/12/17 09:08:38;;;;;;;11.48;6.53;;;7.30;99.90;;;;;;4814221;29;20046;-91
2021/12/17 09:15:04;;;;;;;12.55;7.70;;;7.70;99.90;;;;;;4791735;29;20065;-91
2021/12/17 09:16:59;;;;;;;8.68;6.93;;;7.80;99.90;;;;;;4815246;29;20054;-85
2021/12/17 09:19:25;;;;;;;8.23;6.30;;;7.70;99.90;;;;;;4831557;29;20076;-85
2021/12/17 09:21:53;;;;;;;10.83;6.77;;;7.80;99.90;;;;;;4796063;29;20502;-87
2021/12/17 09:24:26;;;;;;;7.45;5.57;;;7.80;99.90;;;;;;4837170;29;20060;-87
2021/12/17 09:27:02;;;;;;;11.10;6.07;;;7.80;99.90;;;;;;4815196;29;20124;-87
2021/12/17 09:29:28;;;;;;;12.52;6.57;;;7.80;99.90;;;;;;4839978;29;20056;-87
2021/12/17 09:31:54;;;;;;;8.80;6.85;;;7.80;99.90;;;;;;4813168;29;20042;-87
2021/12/17 09:34:21;;;;;;;8.20;6.35;;;7.80;99.90;;;;;;4814492;29;20053;-87
2021/12/17 09:36:50;;;;;;;8.60;5.53;;;7.90;99.90;;;;;;4831935;29;20050;-88
2021/12/17 09:39:17;;;;;;;10.15;6.25;;;7.90;99.90;;;;;;4829513;29;20054;-87
2021/12/17 09:41:46;;;;;;;7.82;5.47;;;7.90;99.90;;;;;;4816893;29;20057;-87
2021/12/17 09:44:21;;;;;;;10.73;6.80;;;7.90;99.90;;;;;;4837276;29;20054;-90
2021/12/17 09:46:57;;;;;;;9.10;6.45;;;7.30;99.90;;;;;;4833463;29;20134;-89
2021/12/17 09:49:28;;;;;;;10.88;5.78;;;8.00;99.90;;;;;;4827746;29;20114;-91
2021/12/17 09:51:59;;;;;;;9.98;6.68;;;7.60;99.90;;;;;;4834399;29;20049;-92
2021/12/17 09:54:30;;;;;;;7.15;5.35;;;8.00;99.90;;;;;;4838141;29;20046;-89
2021/12/17 09:56:56;;;;;;;11.02;6.28;;;8.10;99.90;;;;;;4831555;29;20049;-85
2021/12/17 09:59:22;;;;;;;8.53;6.20;;;8.00;99.90;;;;;;4801692;29;20046;-89
2021/12/17 10:01:48;;;;;;;10.83;6.27;;;8.10;99.90;;;;;;4823829;29;20111;-88
2021/12/17 10:04:16;;;;;;;13.47;6.83;;;8.10;99.90;;;;;;4830728;29;20397;-90
2021/12/17 10:06:44;;;;;;;9.93;5.85;;;7.30;99.90;;;;;;4816444;29;20054;-89
2021/12/17 10:09:12;;;;;;;10.55;6.28;;;8.10;99.90;;;;;;4779231;29;20054;-90
2021/12/17 10:11:38;;;;;;;7.38;6.05;;;8.10;99.90;;;;;;4833922;29;20058;-89
2021/12/17 10:14:22;;;;;;;9.35;5.43;;;7.40;99.90;;;;;;4814731;29;20208;-90
2021/12/17 10:16:48;;;;;;;8.65;5.88;;;8.10;99.90;;;;;;4825159;29;20513;-87
2021/12/17 10:19:50;;;;;;;8.13;5.40;;;8.20;99.90;;;;;;4801303;29;20063;-87
2021/12/17 10:22:18;;;;;;;12.38;5.53;;;8.10;99.90;;;;;;4816798;29;20720;-87
2021/12/17 10:25:02;;;;;;;9.20;5.50;;;8.90;99.90;;;;;;4826185;29;20089;-90
2021/12/17 10:27:33;;;;;;;11.95;6.22;;;8.90;99.90;;;;;;4808841;29;20047;-90
2021/12/17 10:30:07;;;;;;;9.25;5.60;;;8.30;99.90;;;;;;4816442;29;20085;-88
2021/12/17 10:32:33;;;;;;;8.05;5.38;;;8.20;99.90;;;;;;4810170;29;20502;-88
2021/12/17 10:35:07;;;;;;;11.37;6.23;;;8.20;99.90;;;;;;4824729;29;20053;-88
2021/12/17 10:37:39;;;;;;;12.00;6.55;;;8.20;99.90;;;;;;4825971;29;20042;-88
2021/12/17 10:40:17;;;;;;;9.15;6.43;;;8.20;99.90;;;;;;4825310;29;20120;-90
2021/12/17 10:42:51;;;;;;;11.05;6.40;;;8.20;99.90;;;;;;4827703;29;20042;-87
2021/12/17 10:45:27;;;;;;;10.63;6.95;;;8.20;99.90;;;;;;4825272;29;20117;-86
2021/12/17 10:48:28;;;;;;;15.00;9.65;;;8.10;99.90;;;;;;4811323;29;20110;-87
2021/12/17 10:54:16;;;;;;;13.25;7.35;;;8.30;99.90;;;;;;4841382;29;20045;-86
2021/12/17 10:57:00;;;;;;;9.88;7.63;;;8.30;99.90;;;;;;4830978;29;20516;-86
2021/12/17 10:59:34;;;;;;;8.98;6.75;;;8.30;99.90;;;;;;4833164;29;20742;-86
2021/12/17 11:02:11;;;;;;;10.68;5.95;;;8.40;99.90;;;;;;4834729;29;20125;-87
2021/12/17 11:04:45;;;;;;;9.30;5.70;;;8.40;99.90;;;;;;4812696;29;20133;-87
2021/12/17 11:07:16;;;;;;;7.35;4.78;;;8.40;99.90;;;;;;4828642;29;20065;-87
2021/12/17 11:09:50;;;;;;;8.32;5.35;;;8.50;99.90;;;;;;4818193;29;20064;-87
2021/12/17 11:12:28;;;;;;;;;;;8.50;99.90;;;;;;4814526;29;20137;-87
2021/12/17 11:15:18;;;;;;;;;;;;;;;;;;;;;
2021/12/17 11:17:52;;;;;;;8.63;5.35;;;8.60;99.90;;;;;;4838805;29;20048;-87
2021/12/17 11:26:16;;;;;;;7.15;5.22;;;8.60;99.90;;;;;;4825570;29;20099;-87
2021/12/17 11:28:52;;;;;;;9.45;6.20;;;7.90;99.90;;;;;;4816837;29;20058;-87
2021/12/17 11:31:49;;;;;;;7.68;5.72;;;8.70;99.90;;;;;;4828830;29;20082;-88
2021/12/17 11:34:20;;;;;;;9.35;5.63;;;8.60;99.90;;;;;;4801401;29;20046;-89
2021/12/17 11:36:49;;;;;;;9.77;5.80;;;8.60;99.90;;;;;;4820982;29;20088;-88
2021/12/17 11:39:31;;;;;;;8.90;5.72;;;8.70;99.90;;;;;;4821400;29;20044;-88
2021/12/17 11:42:24;;;;;;;8.93;5.63;;;8.60;99.90;;;;;;4829613;29;20046;-88
2021/12/17 11:47:54;;;;;;;6.38;4.95;;;8.70;99.90;;;;;;4825053;29;20120;-87
2021/12/17 11:50:23;;;;;;;6.75;4.78;;;9.70;99.90;;;;;;4821284;29;20387;-87
2021/12/17 11:52:51;;;;;;;11.65;5.43;;;9.30;99.90;;;;;;4817011;29;20058;-88
2021/12/17 11:55:37;;;;;;;7.40;4.75;;;8.70;99.90;;;;;;4808261;29;20091;-85
2021/12/17 11:58:12;;;;;;;7.93;5.22;;;8.70;99.90;;;;;;4824807;29;20132;-94
2021/12/17 12:00:41;;;;;;;6.20;5.35;;;8.60;99.90;;;;;;4824954;29;20100;-88
2021/12/17 12:03:26;;;;;;;7.68;5.57;;;8.70;99.90;;;;;;4812996;29;20543;-88
2021/12/17 12:05:58;;;;;;;8.45;5.22;;;8.70;99.90;;;;;;4815370;29;20110;-89
2021/12/17 12:08:46;;;;;;;;;;;;;;;;;;;;;
2021/12/17 12:11:31;;;;;;;;;;;;;;;;;;;;;
2021/12/17 12:14:55;;;;;;;7.40;4.85;;;8.70;99.90;;;;;;4833738;29;20048;-89
2021/12/17 12:18:06;;;;;;;6.25;4.20;;;8.70;99.90;;;;;;4838859;29;20093;-89
2021/12/17 12:20:51;;;;;;;6.30;4.45;;;8.70;99.90;;;;;;4824570;29;20049;-90
2021/12/17 12:23:32;;;;;;;7.10;4.53;;;8.70;99.90;;;;;;4815525;29;20044;-88
2021/12/17 12:26:04;;;;;;;6.25;4.32;;;8.80;99.90;;;;;;4818093;29;20049;-89
2021/12/17 12:28:45;;;;;;;6.00;4.78;;;8.80;99.90;;;;;;4826035;29;20050;-89
2021/12/17 12:34:06;;;;;;;6.75;4.25;;;8.70;99.90;;;;;;4828464;29;20106;-90
2021/12/17 12:37:11;;;;;;;6.38;4.18;;;8.70;99.90;;;;;;4826806;29;20516;-86
2021/12/17 12:39:53;;;;;;;5.55;4.13;;;8.80;99.90;;;;;;4850884;29;20408;-89
2021/12/17 12:42:29;;;;;;;5.68;4.18;;;8.80;99.90;;;;;;4825938;29;20137;-90
2021/12/17 12:44:58;;;;;;;4.88;3.50;;;9.60;99.90;;;;;;4813496;29;20053;-90
2021/12/17 12:47:33;;;;;;;7.15;3.75;;;8.80;99.90;;;;;;4826669;29;20077;-93
2021/12/17 12:50:07;;;;;;;4.97;3.22;;;8.80;99.90;;;;;;4807362;29;20569;-89
2021/12/17 12:52:53;;;;;;;5.97;3.83;;;8.90;99.90;;;;;;4808033;29;20398;-89
2021/12/17 12:55:40;;;;;;;6.00;3.45;;;8.90;99.90;;;;;;4810742;29;20056;-89
2021/12/17 12:58:12;;;;;;;4.43;2.90;;;8.40;99.90;;;;;;4812262;29;20535;-89
2021/12/17 13:00:45;;;;;;;3.95;2.60;;;8.80;99.90;;;;;;4812659;29;20054;-87
2021/12/17 13:03:26;;;;;;;3.03;1.90;;;8.80;99.90;;;;;;4824108;29;20542;-89
2021/12/17 13:05:53;;;;;;;3.80;2.35;;;8.80;99.90;;;;;;4827073;29;20125;-90
2021/12/17 13:08:21;;;;;;;3.97;2.53;;;8.40;99.90;;;;;;4811171;29;20160;-89
2021/12/17 13:10:58;;;;;;;4.45;2.67;;;8.80;99.90;;;;;;4812796;29;20057;-89
2021/12/17 13:16:08;;;;;;;3.25;2.03;;;8.80;99.90;;;;;;4827379;29;20053;-89
2021/12/17 13:24:13;;;;;;;2.22;1.50;;;8.80;99.90;;;;;;4809603;29;20069;-89
2021/12/17 13:26:45;;;;;;;2.45;1.98;;;8.80;99.90;;;;;;4812121;29;20050;-88
2021/12/17 13:29:21;;;;;;;1.83;1.33;;;8.80;99.90;;;;;;4812492;29;20085;-87
2021/12/17 13:31:54;;;;;;;0.85;0.85;;;8.70;99.90;;;;;;4809854;29;20203;-88
2021/12/17 13:34:37;;;;;;;1.42;0.90;;;8.80;99.90;;;;;;4826505;29;20042;-88
2021/12/17 13:37:13;;;;;;;0.50;0.50;;;8.70;99.90;;;;;;4827019;29;20057;-89
2021/12/17 13:39:41;;;;;;;0.98;0.47;;;8.70;99.90;;;;;;4827144;29;20053;-88
2021/12/17 13:42:27;;;;;;;1.23;0.73;;;8.80;99.90;;;;;;4810626;29;20115;-88
2021/12/17 13:45:05;;;;;;;1.02;0.95;;;8.70;99.90;;;;;;4813436;29;20072;-89
2021/12/17 13:47:57;;;;;;;1.70;1.05;;;8.70;99.90;;;;;;4842151;29;20137;-89
2021/12/17 13:50:46;;;;;;;1.25;1.15;;;8.70;99.90;;;;;;4810982;29;20066;-89
2021/12/17 13:53:21;;;;;;;1.85;1.70;;;8.70;99.90;;;;;;4826949;29;20140;-88
2021/12/17 13:55:59;;;;;;;;;;;;;;;;;;;;;
2021/12/17 13:58:25;;;;;;;1.60;1.50;;;8.70;99.90;;;;;;4812008;29;20050;-88
2021/12/17 14:00:58;;;;;;;2.27;1.53;;;8.70;99.90;;;;;;4816838;29;20045;-90
2021/12/17 14:03:31;;;;;;;1.63;1.52;;;8.20;99.90;;;;;;4811683;29;20295;-86
2021/12/17 14:06:25;;;;;;;1.63;1.50;;;8.80;99.90;;;;;;4818837;29;20134;-91
2021/12/17 14:08:53;;;;;;;2.85;2.00;;;8.70;99.90;;;;;;4822190;29;20532;-89
2021/12/17 14:11:21;;;;;;;1.58;1.48;;;8.60;99.90;;;;;;4797843;29;20085;-88
2021/12/17 14:13:57;;;;;;;2.53;1.92;;;8.70;99.90;;;;;;4827852;29;20042;-88
2021/12/17 14:16:30;;;;;;;2.58;1.77;;;8.60;99.90;;;;;;4812278;29;20046;-90
2021/12/17 14:19:03;;;;;;;2.70;2.20;;;8.60;99.90;;;;;;4827156;29;20053;-87
2021/12/17 14:21:40;;;;;;;3.50;2.00;;;8.60;99.90;;;;;;4833764;29;20053;-88
2021/12/17 14:24:06;;;;;;;5.22;2.50;;;8.60;99.90;;;;;;4817151;29;20076;-87
2021/12/17 14:26:34;;;;;;;2.20;2.00;;;8.60;99.90;;;;;;4827309;29;20454;-87
2021/12/17 14:29:28;;;;;;;3.00;2.45;;;8.60;99.90;;;;;;4820661;29;20045;-87
2021/12/17 14:32:03;;;;;;;3.45;2.42;;;7.80;99.90;;;;;;4813640;29;20053;-88
2021/12/17 14:34:28;;;;;;;3.20;2.22;;;8.60;99.90;;;;;;4826286;29;20085;-89
2021/12/17 14:37:02;;;;;;;2.90;2.57;;;8.60;99.90;;;;;;4808271;29;20057;-84
2021/12/17 14:39:36;;;;;;;2.53;2.33;;;8.60;99.90;;;;;;4815108;29;20046;-91
2021/12/17 14:42:05;;;;;;;2.78;2.10;;;8.60;99.90;;;;;;4811556;29;20370;-89
2021/12/17 14:47:21;;;;;;;3.60;2.83;;;8.60;99.90;;;;;;4826943;29;20470;-89
2021/12/17 15:06:04;;;;;;;4.25;3.47;;;8.60;99.90;;;;;;4813777;29;20063;-89
2021/12/17 15:08:30;;;;;;;7.90;3.33;;;8.80;99.90;;;;;;4814060;29;20138;-88
2021/12/17 15:10:58;;;;;;;4.07;3.15;;;7.90;99.90;;;;;;4812343;29;20295;-87
2021/12/17 15:13:23;;;;;;;9.07;3.47;;;8.50;99.90;;;;;;4808065;29;20551;-87
2021/12/17 15:15:52;;;;;;;4.67;3.20;;;8.60;99.90;;;;;;4817662;29;20042;-87
2021/12/17 15:18:20;;;;;;;3.58;2.95;;;8.50;99.90;;;;;;4823225;29;20443;-88
2021/12/17 15:20:49;;;;;;;3.42;3.10;;;8.60;99.90;;;;;;4808060;29;20182;-87
2021/12/17 15:23:16;;;;;;;3.20;2.60;;;8.50;99.90;;;;;;4807059;29;20065;-88
2021/12/17 15:25:42;;;;;;;4.38;3.22;;;7.70;99.90;;;;;;4807535;29;20462;-90
2021/12/17 15:28:14;;;;;;;3.58;2.83;;;8.50;99.90;;;;;;4808617;29;20419;-88
2021/12/17 15:30:43;;;;;;;5.80;3.55;;;8.50;99.90;;;;;;4826979;29;20050;-87
2021/12/17 15:33:12;;;;;;;3.55;3.17;;;8.50;99.90;;;;;;4808229;29;20061;-89
2021/12/17 15:35:46;;;;;;;6.38;4.10;;;8.40;99.90;;;;;;4789561;29;20123;-87
2021/12/17 15:38:14;;;;;;;4.43;3.22;;;8.50;99.90;;;;;;4804995;29;20497;-87
2021/12/17 15:40:43;;;;;;;4.00;2.60;;;9.20;99.90;;;;;;4812439;29;20065;-86
2021/12/17 15:43:10;;;;;;;4.55;3.08;;;8.50;99.90;;;;;;4825337;29;20057;-86
2021/12/17 15:45:39;;;;;;;2.92;2.55;;;8.50;99.90;;;;;;4834019;29;20407;-83
2021/12/17 15:48:07;;;;;;;4.95;3.42;;;7.80;99.90;;;;;;4818483;29;20057;-87
2021/12/17 15:50:34;;;;;;;3.72;3.33;;;8.50;99.90;;;;;;4811299;29;20073;-85
2021/12/17 15:53:00;;;;;;;4.97;3.60;;;8.60;99.90;;;;;;4825109;29;20091;-87
2021/12/17 15:55:27;;;;;;;5.93;4.68;;;8.50;99.90;;;;;;4831927;29;20505;-87
2021/12/17 15:57:54;;;;;;;6.32;4.50;;;8.50;99.90;;;;;;4828111;29;20065;-87
2021/12/17 16:00:22;;;;;;;6.50;4.82;;;8.40;99.90;;;;;;4838046;29;20050;-87
2021/12/17 16:02:48;;;;;;;5.38;3.72;;;8.50;99.90;;;;;;4833132;29;20098;-82
2021/12/17 16:05:16;;;;;;;7.30;4.10;;;8.20;99.90;;;;;;4832404;29;20062;-83
2021/12/17 16:07:46;;;;;;;4.93;3.83;;;8.50;99.90;;;;;;4826664;29;20134;-83
2021/12/17 16:21:01;;;;;;;8.07;4.80;;;8.50;99.90;;;;;;4822089;29;20518;-85
2021/12/17 16:23:28;;;;;;;4.93;4.15;;;8.50;99.90;;;;;;4822653;29;20056;-86
2021/12/17 16:25:54;;;;;;;5.60;4.20;;;8.50;99.90;;;;;;4810001;29;20046;-85
2021/12/17 16:28:20;;;;;;;6.30;4.70;;;8.50;99.90;;;;;;4800236;29;20077;-85
2021/12/17 16:30:45;;;;;;;9.53;5.17;;;8.40;99.90;;;;;;4808679;29;20760;-86
2021/12/17 16:33:11;;;;;;;4.93;3.93;;;8.40;99.90;;;;;;4821391;29;20057;-85
2021/12/17 16:35:42;;;;;;;7.13;4.57;;;8.40;99.90;;;;;;4820172;29;20042;-89
2021/12/17 16:38:18;;;;;;;8.13;4.75;;;8.50;99.90;;;;;;4832492;29;20061;-88
2021/12/17 16:40:44;;;;;;;7.30;4.72;;;8.40;99.90;;;;;;4824897;29;20053;-86
2021/12/17 16:43:12;;;;;;;10.10;5.37;;;8.50;99.90;;;;;;4833937;29;20042;-96
2021/12/17 16:46:03;;;;;;;7.15;4.22;;;8.50;99.90;;;;;;4821864;29;20057;-92
2021/12/17 16:48:49;;;;;;;5.20;4.45;;;8.40;99.90;;;;;;4834047;29;20050;-87
2021/12/17 16:51:29;;;;;;;;;;;;;;;;;;;;;
2021/12/17 16:53:57;;;;;;;5.53;3.42;;;8.40;99.90;;;;;;4829155;29;20053;-85
2021/12/17 16:56:23;;;;;;;8.35;4.07;;;8.50;99.90;;;;;;4826891;29;20102;-85
2021/12/17 16:58:49;;;;;;;8.43;4.82;;;8.50;99.90;;;;;;4826591;29;20061;-83
2021/12/17 17:01:15;;;;;;;7.40;5.03;;;8.40;99.90;;;;;;4822988;29;20119;-83
2021/12/17 17:03:41;;;;;;;6.57;4.60;;;8.50;99.90;;;;;;4835807;29;20069;-92
2021/12/17 17:06:06;;;;;;;5.28;4.30;;;8.50;99.90;;;;;;4806331;29;20074;-86
2021/12/17 17:08:38;;;;;;;10.33;5.43;;;8.40;99.90;;;;;;4835052;29;20077;-90